sensor_id;sensor_type;location;lat;lon;timestamp;P1;durP1;ratioP1;P2;durP2;ratioP2
69161;SDS011;56269;51.738;21.652;2022-11-20T00:01:09;55.40;;;18.40;;
69161;SDS011;56269;51.738;21.652;2022-11-20T00:03:35;46.08;;;16.67;;
69161;SDS011;56269;51.738;21.652;2022-11-20T00:06:02;49.20;;;17.77;;
69161;SDS011;56269;51.738;21.652;2022-11-20T00:08:30;45.08;;;17.35;;
69161;SDS011;56269;51.738;21.652;2022-11-20T00:10:57;50.13;;;17.17;;
69161;SDS011;56269;51.738;21.652;2022-11-20T00:13:23;46.90;;;16.13;;
69161;SDS011;56269;51.738;21.652;2022-11-20T00:15:56;44.67;;;15.77;;
69161;SDS011;56269;51.738;21.652;2022-11-20T00:18:24;44.10;;;13.20;;
69161;SDS011;56269;51.738;21.652;2022-11-20T00:20:50;43.38;;;15.82;;
69161;SDS011;56269;51.738;21.652;2022-11-20T00:23:16;47.15;;;17.83;;
69161;SDS011;56269;51.738;21.652;2022-11-20T00:25:43;45.00;;;15.10;;
69161;SDS011;56269;51.738;21.652;2022-11-20T00:28:09;44.40;;;15.53;;
69161;SDS011;56269;51.738;21.652;2022-11-20T00:30:35;48.35;;;17.23;;
69161;SDS011;56269;51.738;21.652;2022-11-20T00:33:01;45.08;;;16.55;;
69161;SDS011;56269;51.738;21.652;2022-11-20T00:35:27;47.30;;;17.20;;
69161;SDS011;56269;51.738;21.652;2022-11-20T00:37:53;48.93;;;17.53;;
69161;SDS011;56269;51.738;21.652;2022-11-20T00:40:19;46.63;;;16.88;;
69161;SDS011;56269;51.738;21.652;2022-11-20T00:42:45;50.67;;;17.90;;
69161;SDS011;56269;51.738;21.652;2022-11-20T00:45:12;47.30;;;16.10;;
69161;SDS011;56269;51.738;21.652;2022-11-20T00:47:37;48.70;;;18.55;;
69161;SDS011;56269;51.738;21.652;2022-11-20T00:50:04;47.57;;;16.27;;
69161;SDS011;56269;51.738;21.652;2022-11-20T00:52:30;55.85;;;18.05;;
69161;SDS011;56269;51.738;21.652;2022-11-20T00:54:56;52.80;;;18.45;;
69161;SDS011;56269;51.738;21.652;2022-11-20T00:57:22;50.47;;;16.35;;
69161;SDS011;56269;51.738;21.652;2022-11-20T00:59:49;45.25;;;17.77;;
69161;SDS011;56269;51.738;21.652;2022-11-20T01:02:15;51.08;;;15.93;;
69161;SDS011;56269;51.738;21.652;2022-11-20T01:04:42;44.17;;;17.10;;
69161;SDS011;56269;51.738;21.652;2022-11-20T01:07:08;54.47;;;18.42;;
69161;SDS011;56269;51.738;21.652;2022-11-20T01:09:34;45.97;;;16.90;;
69161;SDS011;56269;51.738;21.652;2022-11-20T01:12:00;48.00;;;17.23;;
69161;SDS011;56269;51.738;21.652;2022-11-20T01:14:27;46.42;;;17.23;;
69161;SDS011;56269;51.738;21.652;2022-11-20T01:16:52;46.13;;;16.00;;
69161;SDS011;56269;51.738;21.652;2022-11-20T01:19:20;41.97;;;15.43;;
69161;SDS011;56269;51.738;21.652;2022-11-20T01:21:49;45.55;;;17.20;;
69161;SDS011;56269;51.738;21.652;2022-11-20T01:24:17;48.43;;;17.30;;
69161;SDS011;56269;51.738;21.652;2022-11-20T01:26:47;46.00;;;15.27;;
69161;SDS011;56269;51.738;21.652;2022-11-20T01:29:15;44.25;;;16.40;;
69161;SDS011;56269;51.738;21.652;2022-11-20T01:31:43;39.05;;;13.63;;
69161;SDS011;56269;51.738;21.652;2022-11-20T01:34:11;41.78;;;16.42;;
69161;SDS011;56269;51.738;21.652;2022-11-20T01:36:39;37.30;;;13.83;;
69161;SDS011;56269;51.738;21.652;2022-11-20T01:39:09;46.55;;;15.88;;
69161;SDS011;56269;51.738;21.652;2022-11-20T01:41:37;38.75;;;13.68;;
69161;SDS011;56269;51.738;21.652;2022-11-20T01:47:14;43.33;;;15.82;;
69161;SDS011;56269;51.738;21.652;2022-11-20T01:49:48;35.23;;;14.00;;
69161;SDS011;56269;51.738;21.652;2022-11-20T01:52:20;38.17;;;14.45;;
69161;SDS011;56269;51.738;21.652;2022-11-20T01:54:57;43.97;;;15.25;;
69161;SDS011;56269;51.738;21.652;2022-11-20T01:57:27;36.88;;;12.30;;
69161;SDS011;56269;51.738;21.652;2022-11-20T01:59:59;36.08;;;12.85;;
69161;SDS011;56269;51.738;21.652;2022-11-20T02:02:28;45.37;;;13.73;;
69161;SDS011;56269;51.738;21.652;2022-11-20T02:04:56;41.15;;;13.73;;
69161;SDS011;56269;51.738;21.652;2022-11-20T02:07:28;44.10;;;15.82;;
69161;SDS011;56269;51.738;21.652;2022-11-20T02:09:54;42.00;;;15.07;;
69161;SDS011;56269;51.738;21.652;2022-11-20T02:12:20;34.95;;;13.27;;
69161;SDS011;56269;51.738;21.652;2022-11-20T02:15:06;28.23;;;11.95;;
69161;SDS011;56269;51.738;21.652;2022-11-20T02:17:32;39.47;;;14.52;;
69161;SDS011;56269;51.738;21.652;2022-11-20T02:19:58;36.17;;;14.70;;
69161;SDS011;56269;51.738;21.652;2022-11-20T02:25:05;43.30;;;15.60;;
69161;SDS011;56269;51.738;21.652;2022-11-20T02:27:33;41.50;;;15.93;;
69161;SDS011;56269;51.738;21.652;2022-11-20T02:30:01;50.88;;;17.45;;
69161;SDS011;56269;51.738;21.652;2022-11-20T02:32:34;36.63;;;13.90;;
69161;SDS011;56269;51.738;21.652;2022-11-20T02:37:49;51.57;;;17.87;;
69161;SDS011;56269;51.738;21.652;2022-11-20T02:40:19;38.42;;;14.50;;
69161;SDS011;56269;51.738;21.652;2022-11-20T02:42:45;32.30;;;12.45;;
69161;SDS011;56269;51.738;21.652;2022-11-20T02:45:11;45.45;;;16.20;;
69161;SDS011;56269;51.738;21.652;2022-11-20T02:47:38;46.47;;;16.63;;
69161;SDS011;56269;51.738;21.652;2022-11-20T02:50:04;39.23;;;13.67;;
69161;SDS011;56269;51.738;21.652;2022-11-20T02:52:31;43.88;;;16.20;;
69161;SDS011;56269;51.738;21.652;2022-11-20T02:54:57;46.15;;;16.10;;
69161;SDS011;56269;51.738;21.652;2022-11-20T02:57:23;47.95;;;16.95;;
69161;SDS011;56269;51.738;21.652;2022-11-20T02:59:50;43.75;;;15.80;;
69161;SDS011;56269;51.738;21.652;2022-11-20T03:02:16;51.05;;;16.33;;
69161;SDS011;56269;51.738;21.652;2022-11-20T03:04:42;43.33;;;16.52;;
69161;SDS011;56269;51.738;21.652;2022-11-20T03:07:08;47.42;;;16.48;;
69161;SDS011;56269;51.738;21.652;2022-11-20T03:09:35;40.20;;;15.90;;
69161;SDS011;56269;51.738;21.652;2022-11-20T03:12:01;45.57;;;14.63;;
69161;SDS011;56269;51.738;21.652;2022-11-20T03:14:27;49.33;;;17.70;;
69161;SDS011;56269;51.738;21.652;2022-11-20T03:16:53;47.42;;;17.50;;
69161;SDS011;56269;51.738;21.652;2022-11-20T03:19:20;55.67;;;19.33;;
69161;SDS011;56269;51.738;21.652;2022-11-20T03:21:46;51.43;;;18.10;;
69161;SDS011;56269;51.738;21.652;2022-11-20T03:24:13;65.00;;;20.48;;
69161;SDS011;56269;51.738;21.652;2022-11-20T03:26:39;60.75;;;19.75;;
69161;SDS011;56269;51.738;21.652;2022-11-20T03:29:06;59.03;;;19.73;;
69161;SDS011;56269;51.738;21.652;2022-11-20T03:31:36;53.42;;;18.35;;
69161;SDS011;56269;51.738;21.652;2022-11-20T03:34:06;54.27;;;18.93;;
69161;SDS011;56269;51.738;21.652;2022-11-20T03:36:34;54.33;;;19.77;;
69161;SDS011;56269;51.738;21.652;2022-11-20T03:39:00;51.05;;;18.42;;
69161;SDS011;56269;51.738;21.652;2022-11-20T03:41:28;55.80;;;18.42;;
69161;SDS011;56269;51.738;21.652;2022-11-20T03:43:57;49.97;;;18.48;;
69161;SDS011;56269;51.738;21.652;2022-11-20T03:46:25;44.90;;;14.93;;
69161;SDS011;56269;51.738;21.652;2022-11-20T03:48:53;51.75;;;18.27;;
69161;SDS011;56269;51.738;21.652;2022-11-20T03:51:22;50.47;;;17.40;;
69161;SDS011;56269;51.738;21.652;2022-11-20T03:54:00;41.72;;;16.38;;
69161;SDS011;56269;51.738;21.652;2022-11-20T03:56:30;49.58;;;16.63;;
69161;SDS011;56269;51.738;21.652;2022-11-20T03:58:57;46.95;;;16.80;;
69161;SDS011;56269;51.738;21.652;2022-11-20T04:01:25;52.42;;;16.25;;
69161;SDS011;56269;51.738;21.652;2022-11-20T04:03:53;42.22;;;16.15;;
69161;SDS011;56269;51.738;21.652;2022-11-20T04:06:25;48.42;;;16.58;;
69161;SDS011;56269;51.738;21.652;2022-11-20T04:08:59;45.90;;;15.10;;
69161;SDS011;56269;51.738;21.652;2022-11-20T04:11:26;39.00;;;14.85;;
69161;SDS011;56269;51.738;21.652;2022-11-20T04:13:56;46.00;;;14.65;;
69161;SDS011;56269;51.738;21.652;2022-11-20T04:16:24;42.42;;;15.15;;
69161;SDS011;56269;51.738;21.652;2022-11-20T04:18:52;40.38;;;14.65;;
69161;SDS011;56269;51.738;21.652;2022-11-20T04:21:19;43.33;;;14.77;;
69161;SDS011;56269;51.738;21.652;2022-11-20T04:23:46;41.35;;;14.00;;
69161;SDS011;56269;51.738;21.652;2022-11-20T04:26:12;39.85;;;14.70;;
69161;SDS011;56269;51.738;21.652;2022-11-20T04:28:38;39.92;;;15.05;;
69161;SDS011;56269;51.738;21.652;2022-11-20T04:31:09;36.28;;;14.40;;
69161;SDS011;56269;51.738;21.652;2022-11-20T04:33:37;39.40;;;15.10;;
69161;SDS011;56269;51.738;21.652;2022-11-20T04:36:05;37.97;;;13.07;;
69161;SDS011;56269;51.738;21.652;2022-11-20T04:38:33;36.50;;;13.05;;
69161;SDS011;56269;51.738;21.652;2022-11-20T04:41:00;45.15;;;14.43;;
69161;SDS011;56269;51.738;21.652;2022-11-20T04:43:28;38.33;;;14.07;;
69161;SDS011;56269;51.738;21.652;2022-11-20T04:45:56;37.25;;;13.88;;
69161;SDS011;56269;51.738;21.652;2022-11-20T04:48:23;38.95;;;12.95;;
69161;SDS011;56269;51.738;21.652;2022-11-20T04:50:50;38.33;;;13.25;;
69161;SDS011;56269;51.738;21.652;2022-11-20T04:53:17;17.50;;;8.23;;
69161;SDS011;56269;51.738;21.652;2022-11-20T04:55:44;28.55;;;11.52;;
69161;SDS011;56269;51.738;21.652;2022-11-20T04:58:11;22.85;;;9.05;;
69161;SDS011;56269;51.738;21.652;2022-11-20T05:00:37;36.45;;;12.93;;
69161;SDS011;56269;51.738;21.652;2022-11-20T05:03:04;37.63;;;13.38;;
69161;SDS011;56269;51.738;21.652;2022-11-20T05:05:30;43.03;;;15.18;;
69161;SDS011;56269;51.738;21.652;2022-11-20T05:07:57;41.53;;;13.35;;
69161;SDS011;56269;51.738;21.652;2022-11-20T05:10:23;40.83;;;13.00;;
69161;SDS011;56269;51.738;21.652;2022-11-20T05:12:53;47.88;;;15.30;;
69161;SDS011;56269;51.738;21.652;2022-11-20T05:15:19;46.70;;;14.73;;
69161;SDS011;56269;51.738;21.652;2022-11-20T05:17:49;48.50;;;15.48;;
69161;SDS011;56269;51.738;21.652;2022-11-20T05:20:16;49.47;;;15.68;;
69161;SDS011;56269;51.738;21.652;2022-11-20T05:22:43;40.77;;;14.50;;
69161;SDS011;56269;51.738;21.652;2022-11-20T05:25:10;38.75;;;13.82;;
69161;SDS011;56269;51.738;21.652;2022-11-20T05:27:37;38.55;;;13.48;;
69161;SDS011;56269;51.738;21.652;2022-11-20T05:30:03;42.20;;;14.57;;
69161;SDS011;56269;51.738;21.652;2022-11-20T05:32:30;43.25;;;15.07;;
69161;SDS011;56269;51.738;21.652;2022-11-20T05:34:56;42.47;;;14.60;;
69161;SDS011;56269;51.738;21.652;2022-11-20T05:37:23;39.90;;;13.27;;
69161;SDS011;56269;51.738;21.652;2022-11-20T05:39:49;49.63;;;16.73;;
69161;SDS011;56269;51.738;21.652;2022-11-20T05:42:15;48.50;;;16.58;;
69161;SDS011;56269;51.738;21.652;2022-11-20T05:44:57;43.35;;;13.63;;
69161;SDS011;56269;51.738;21.652;2022-11-20T05:47:24;48.80;;;15.30;;
69161;SDS011;56269;51.738;21.652;2022-11-20T05:49:51;48.67;;;16.85;;
69161;SDS011;56269;51.738;21.652;2022-11-20T05:52:17;51.72;;;17.48;;
69161;SDS011;56269;51.738;21.652;2022-11-20T05:54:43;41.70;;;13.93;;
69161;SDS011;56269;51.738;21.652;2022-11-20T05:57:10;33.00;;;13.88;;
69161;SDS011;56269;51.738;21.652;2022-11-20T05:59:36;44.73;;;14.83;;
69161;SDS011;56269;51.738;21.652;2022-11-20T06:02:02;57.83;;;18.02;;
69161;SDS011;56269;51.738;21.652;2022-11-20T06:04:28;48.58;;;16.58;;
69161;SDS011;56269;51.738;21.652;2022-11-20T06:06:55;44.70;;;17.33;;
69161;SDS011;56269;51.738;21.652;2022-11-20T06:09:21;45.30;;;17.37;;
69161;SDS011;56269;51.738;21.652;2022-11-20T06:11:47;43.97;;;17.13;;
69161;SDS011;56269;51.738;21.652;2022-11-20T06:14:13;55.55;;;17.70;;
69161;SDS011;56269;51.738;21.652;2022-11-20T06:16:39;55.95;;;18.55;;
69161;SDS011;56269;51.738;21.652;2022-11-20T06:19:05;51.80;;;16.87;;
69161;SDS011;56269;51.738;21.652;2022-11-20T06:21:31;45.88;;;14.70;;
69161;SDS011;56269;51.738;21.652;2022-11-20T06:23:57;56.63;;;16.60;;
69161;SDS011;56269;51.738;21.652;2022-11-20T06:26:25;28.83;;;10.63;;
69161;SDS011;56269;51.738;21.652;2022-11-20T06:28:53;51.22;;;16.52;;
69161;SDS011;56269;51.738;21.652;2022-11-20T06:31:22;53.15;;;17.08;;
69161;SDS011;56269;51.738;21.652;2022-11-20T06:33:50;47.60;;;16.73;;
69161;SDS011;56269;51.738;21.652;2022-11-20T06:36:18;30.58;;;13.20;;
69161;SDS011;56269;51.738;21.652;2022-11-20T06:38:46;41.08;;;14.75;;
69161;SDS011;56269;51.738;21.652;2022-11-20T06:41:16;42.67;;;16.02;;
69161;SDS011;56269;51.738;21.652;2022-11-20T06:43:45;32.30;;;13.07;;
69161;SDS011;56269;51.738;21.652;2022-11-20T06:46:12;46.60;;;16.45;;
69161;SDS011;56269;51.738;21.652;2022-11-20T06:48:39;56.70;;;19.25;;
69161;SDS011;56269;51.738;21.652;2022-11-20T06:51:07;40.10;;;15.18;;
69161;SDS011;56269;51.738;21.652;2022-11-20T06:53:33;49.90;;;18.48;;
69161;SDS011;56269;51.738;21.652;2022-11-20T06:56:00;46.90;;;16.50;;
69161;SDS011;56269;51.738;21.652;2022-11-20T06:58:26;49.70;;;16.40;;
69161;SDS011;56269;51.738;21.652;2022-11-20T07:00:57;50.42;;;17.13;;
69161;SDS011;56269;51.738;21.652;2022-11-20T07:03:27;56.75;;;18.92;;
69161;SDS011;56269;51.738;21.652;2022-11-20T07:05:57;49.00;;;18.33;;
69161;SDS011;56269;51.738;21.652;2022-11-20T07:08:24;53.85;;;17.75;;
69161;SDS011;56269;51.738;21.652;2022-11-20T07:10:51;60.70;;;18.98;;
69161;SDS011;56269;51.738;21.652;2022-11-20T07:13:17;57.95;;;21.20;;
69161;SDS011;56269;51.738;21.652;2022-11-20T07:15:43;49.88;;;17.83;;
69161;SDS011;56269;51.738;21.652;2022-11-20T07:18:09;49.67;;;18.57;;
69161;SDS011;56269;51.738;21.652;2022-11-20T07:20:36;59.88;;;19.00;;
69161;SDS011;56269;51.738;21.652;2022-11-20T07:23:02;43.75;;;14.93;;
69161;SDS011;56269;51.738;21.652;2022-11-20T07:25:28;39.72;;;15.25;;
69161;SDS011;56269;51.738;21.652;2022-11-20T07:27:58;31.35;;;12.57;;
69161;SDS011;56269;51.738;21.652;2022-11-20T07:30:25;31.85;;;10.00;;
69161;SDS011;56269;51.738;21.652;2022-11-20T07:32:52;23.60;;;9.95;;
69161;SDS011;56269;51.738;21.652;2022-11-20T07:35:19;26.38;;;11.18;;
69161;SDS011;56269;51.738;21.652;2022-11-20T07:37:46;29.58;;;11.02;;
69161;SDS011;56269;51.738;21.652;2022-11-20T07:40:13;36.85;;;14.18;;
69161;SDS011;56269;51.738;21.652;2022-11-20T07:42:46;26.75;;;9.88;;
69161;SDS011;56269;51.738;21.652;2022-11-20T07:45:14;25.42;;;11.43;;
69161;SDS011;56269;51.738;21.652;2022-11-20T07:47:40;24.05;;;10.27;;
69161;SDS011;56269;51.738;21.652;2022-11-20T07:50:07;28.00;;;10.45;;
69161;SDS011;56269;51.738;21.652;2022-11-20T07:52:33;29.92;;;11.77;;
69161;SDS011;56269;51.738;21.652;2022-11-20T07:54:59;30.02;;;11.52;;
69161;SDS011;56269;51.738;21.652;2022-11-20T07:57:25;25.77;;;11.27;;
69161;SDS011;56269;51.738;21.652;2022-11-20T07:59:52;29.88;;;11.35;;
69161;SDS011;56269;51.738;21.652;2022-11-20T08:02:18;33.17;;;12.35;;
69161;SDS011;56269;51.738;21.652;2022-11-20T08:04:44;36.35;;;11.40;;
69161;SDS011;56269;51.738;21.652;2022-11-20T08:07:10;36.93;;;14.57;;
69161;SDS011;56269;51.738;21.652;2022-11-20T08:09:36;29.73;;;11.23;;
69161;SDS011;56269;51.738;21.652;2022-11-20T08:12:02;36.67;;;12.73;;
69161;SDS011;56269;51.738;21.652;2022-11-20T08:14:47;39.28;;;14.50;;
69161;SDS011;56269;51.738;21.652;2022-11-20T08:17:13;49.47;;;18.80;;
69161;SDS011;56269;51.738;21.652;2022-11-20T08:19:39;44.90;;;16.27;;
69161;SDS011;56269;51.738;21.652;2022-11-20T08:22:05;26.88;;;11.10;;
69161;SDS011;56269;51.738;21.652;2022-11-20T08:24:31;38.55;;;15.90;;
69161;SDS011;56269;51.738;21.652;2022-11-20T08:26:58;33.60;;;13.50;;
69161;SDS011;56269;51.738;21.652;2022-11-20T08:29:28;32.23;;;13.93;;
69161;SDS011;56269;51.738;21.652;2022-11-20T08:31:54;26.73;;;10.57;;
69161;SDS011;56269;51.738;21.652;2022-11-20T08:34:37;29.33;;;12.93;;
69161;SDS011;56269;51.738;21.652;2022-11-20T08:37:03;31.25;;;13.32;;
69161;SDS011;56269;51.738;21.652;2022-11-20T08:39:29;34.37;;;13.13;;
69161;SDS011;56269;51.738;21.652;2022-11-20T08:41:55;33.53;;;12.77;;
69161;SDS011;56269;51.738;21.652;2022-11-20T08:44:21;37.72;;;14.40;;
69161;SDS011;56269;51.738;21.652;2022-11-20T08:46:47;37.08;;;13.85;;
69161;SDS011;56269;51.738;21.652;2022-11-20T08:49:14;39.73;;;14.47;;
69161;SDS011;56269;51.738;21.652;2022-11-20T08:51:41;45.45;;;14.77;;
69161;SDS011;56269;51.738;21.652;2022-11-20T08:54:08;31.77;;;12.45;;
69161;SDS011;56269;51.738;21.652;2022-11-20T08:56:34;37.72;;;14.57;;
69161;SDS011;56269;51.738;21.652;2022-11-20T08:59:01;34.40;;;15.18;;
69161;SDS011;56269;51.738;21.652;2022-11-20T09:01:27;41.23;;;16.57;;
69161;SDS011;56269;51.738;21.652;2022-11-20T09:03:55;28.55;;;13.20;;
69161;SDS011;56269;51.738;21.652;2022-11-20T09:06:22;46.22;;;17.80;;
69161;SDS011;56269;51.738;21.652;2022-11-20T09:08:54;37.65;;;14.77;;
69161;SDS011;56269;51.738;21.652;2022-11-20T09:11:21;22.83;;;9.75;;
69161;SDS011;56269;51.738;21.652;2022-11-20T09:13:47;24.97;;;10.47;;
69161;SDS011;56269;51.738;21.652;2022-11-20T09:16:13;34.45;;;13.45;;
69161;SDS011;56269;51.738;21.652;2022-11-20T09:18:39;20.05;;;8.52;;
69161;SDS011;56269;51.738;21.652;2022-11-20T09:21:07;39.20;;;14.65;;
69161;SDS011;56269;51.738;21.652;2022-11-20T09:23:37;31.88;;;11.75;;
69161;SDS011;56269;51.738;21.652;2022-11-20T09:26:04;39.33;;;14.97;;
69161;SDS011;56269;51.738;21.652;2022-11-20T09:28:31;32.55;;;11.95;;
69161;SDS011;56269;51.738;21.652;2022-11-20T09:30:57;33.47;;;12.20;;
69161;SDS011;56269;51.738;21.652;2022-11-20T09:33:24;32.42;;;10.10;;
69161;SDS011;56269;51.738;21.652;2022-11-20T09:35:50;37.15;;;13.95;;
69161;SDS011;56269;51.738;21.652;2022-11-20T09:38:17;29.37;;;11.23;;
69161;SDS011;56269;51.738;21.652;2022-11-20T09:54:16;31.38;;;11.55;;
69161;SDS011;56269;51.738;21.652;2022-11-20T09:56:45;34.60;;;12.88;;
69161;SDS011;56269;51.738;21.652;2022-11-20T09:59:23;31.05;;;11.63;;
69161;SDS011;56269;51.738;21.652;2022-11-20T10:04:47;37.07;;;13.97;;
69161;SDS011;56269;51.738;21.652;2022-11-20T10:07:29;31.08;;;11.45;;
69161;SDS011;56269;51.738;21.652;2022-11-20T10:10:04;25.55;;;10.93;;
69161;SDS011;56269;51.738;21.652;2022-11-20T10:24:00;31.65;;;12.52;;
69161;SDS011;56269;51.738;21.652;2022-11-20T10:29:17;24.38;;;8.82;;
69161;SDS011;56269;51.738;21.652;2022-11-20T10:31:48;22.77;;;8.80;;
69161;SDS011;56269;51.738;21.652;2022-11-20T10:34:57;40.20;;;14.00;;
69161;SDS011;56269;51.738;21.652;2022-11-20T10:37:26;26.00;;;11.65;;
69161;SDS011;56269;51.738;21.652;2022-11-20T10:42:47;28.65;;;12.32;;
69161;SDS011;56269;51.738;21.652;2022-11-20T10:47:50;27.45;;;10.95;;
69161;SDS011;56269;51.738;21.652;2022-11-20T10:50:19;23.77;;;9.10;;
69161;SDS011;56269;51.738;21.652;2022-11-20T10:55:27;30.65;;;13.05;;
69161;SDS011;56269;51.738;21.652;2022-11-20T10:58:13;23.67;;;9.10;;
69161;SDS011;56269;51.738;21.652;2022-11-20T11:00:44;26.60;;;10.32;;
69161;SDS011;56269;51.738;21.652;2022-11-20T11:03:26;24.95;;;10.38;;
69161;SDS011;56269;51.738;21.652;2022-11-20T11:06:02;25.90;;;11.63;;
69161;SDS011;56269;51.738;21.652;2022-11-20T11:08:42;31.67;;;12.68;;
69161;SDS011;56269;51.738;21.652;2022-11-20T11:13:50;28.30;;;12.43;;
69161;SDS011;56269;51.738;21.652;2022-11-20T11:16:21;27.80;;;9.73;;
69161;SDS011;56269;51.738;21.652;2022-11-20T11:18:49;22.00;;;8.55;;
69161;SDS011;56269;51.738;21.652;2022-11-20T11:21:23;27.30;;;10.48;;
69161;SDS011;56269;51.738;21.652;2022-11-20T11:23:58;30.37;;;11.27;;
69161;SDS011;56269;51.738;21.652;2022-11-20T11:26:25;27.58;;;10.43;;
69161;SDS011;56269;51.738;21.652;2022-11-20T11:28:59;32.88;;;13.77;;
69161;SDS011;56269;51.738;21.652;2022-11-20T11:31:33;42.85;;;14.32;;
69161;SDS011;56269;51.738;21.652;2022-11-20T11:34:06;26.48;;;11.55;;
69161;SDS011;56269;51.738;21.652;2022-11-20T11:36:36;30.13;;;13.27;;
69161;SDS011;56269;51.738;21.652;2022-11-20T11:39:04;33.88;;;13.18;;
69161;SDS011;56269;51.738;21.652;2022-11-20T11:41:35;37.15;;;15.85;;
69161;SDS011;56269;51.738;21.652;2022-11-20T11:44:22;32.25;;;12.68;;
69161;SDS011;56269;51.738;21.652;2022-11-20T11:47:15;21.23;;;9.23;;
69161;SDS011;56269;51.738;21.652;2022-11-20T12:00:41;34.58;;;12.55;;
69161;SDS011;56269;51.738;21.652;2022-11-20T12:03:19;28.83;;;9.20;;
69161;SDS011;56269;51.738;21.652;2022-11-20T12:05:53;26.77;;;10.65;;
69161;SDS011;56269;51.738;21.652;2022-11-20T12:08:29;26.38;;;10.55;;
69161;SDS011;56269;51.738;21.652;2022-11-20T12:15:59;23.90;;;7.90;;
69161;SDS011;56269;51.738;21.652;2022-11-20T12:18:27;30.33;;;11.10;;
69161;SDS011;56269;51.738;21.652;2022-11-20T12:20:58;27.17;;;10.45;;
69161;SDS011;56269;51.738;21.652;2022-11-20T12:23:39;31.80;;;11.93;;
69161;SDS011;56269;51.738;21.652;2022-11-20T12:26:14;23.35;;;9.43;;
69161;SDS011;56269;51.738;21.652;2022-11-20T12:29:03;28.53;;;9.90;;
69161;SDS011;56269;51.738;21.652;2022-11-20T12:31:44;26.08;;;9.13;;
69161;SDS011;56269;51.738;21.652;2022-11-20T12:37:09;24.27;;;9.25;;
69161;SDS011;56269;51.738;21.652;2022-11-20T12:39:54;27.73;;;10.52;;
69161;SDS011;56269;51.738;21.652;2022-11-20T12:42:30;26.87;;;10.63;;
69161;SDS011;56269;51.738;21.652;2022-11-20T12:59:29;25.48;;;9.60;;
69161;SDS011;56269;51.738;21.652;2022-11-20T13:07:56;26.58;;;11.70;;
69161;SDS011;56269;51.738;21.652;2022-11-20T13:13:01;29.45;;;11.00;;
69161;SDS011;56269;51.738;21.652;2022-11-20T13:15:55;34.38;;;13.25;;
69161;SDS011;56269;51.738;21.652;2022-11-20T13:18:28;27.13;;;9.98;;
69161;SDS011;56269;51.738;21.652;2022-11-20T13:20:59;23.67;;;11.23;;
69161;SDS011;56269;51.738;21.652;2022-11-20T13:23:26;31.13;;;10.98;;
69161;SDS011;56269;51.738;21.652;2022-11-20T13:28:42;28.45;;;9.85;;
69161;SDS011;56269;51.738;21.652;2022-11-20T13:31:09;35.13;;;12.40;;
69161;SDS011;56269;51.738;21.652;2022-11-20T13:34:03;36.45;;;12.25;;
69161;SDS011;56269;51.738;21.652;2022-11-20T13:36:33;20.77;;;8.55;;
69161;SDS011;56269;51.738;21.652;2022-11-20T13:39:00;26.95;;;11.05;;
69161;SDS011;56269;51.738;21.652;2022-11-20T13:44:05;32.15;;;12.43;;
69161;SDS011;56269;51.738;21.652;2022-11-20T13:46:36;28.05;;;11.63;;
69161;SDS011;56269;51.738;21.652;2022-11-20T13:49:14;20.10;;;7.00;;
69161;SDS011;56269;51.738;21.652;2022-11-20T13:51:48;27.10;;;11.02;;
69161;SDS011;56269;51.738;21.652;2022-11-20T13:59:57;30.73;;;12.07;;
69161;SDS011;56269;51.738;21.652;2022-11-20T14:02:31;32.73;;;13.00;;
69161;SDS011;56269;51.738;21.652;2022-11-20T14:04:57;33.72;;;11.88;;
69161;SDS011;56269;51.738;21.652;2022-11-20T14:07:34;37.55;;;13.48;;
69161;SDS011;56269;51.738;21.652;2022-11-20T14:10:05;25.13;;;10.45;;
69161;SDS011;56269;51.738;21.652;2022-11-20T14:12:33;29.85;;;10.35;;
69161;SDS011;56269;51.738;21.652;2022-11-20T14:15:00;37.40;;;13.93;;
69161;SDS011;56269;51.738;21.652;2022-11-20T14:17:31;44.88;;;15.35;;
69161;SDS011;56269;51.738;21.652;2022-11-20T14:20:07;37.88;;;13.43;;
69161;SDS011;56269;51.738;21.652;2022-11-20T14:22:47;45.75;;;16.38;;
69161;SDS011;56269;51.738;21.652;2022-11-20T14:27:47;37.37;;;14.57;;
69161;SDS011;56269;51.738;21.652;2022-11-20T14:30:21;28.85;;;10.73;;
69161;SDS011;56269;51.738;21.652;2022-11-20T14:32:55;44.88;;;17.13;;
69161;SDS011;56269;51.738;21.652;2022-11-20T14:35:27;52.95;;;18.45;;
69161;SDS011;56269;51.738;21.652;2022-11-20T14:37:56;35.60;;;14.18;;
69161;SDS011;56269;51.738;21.652;2022-11-20T14:40:27;39.33;;;14.00;;
69161;SDS011;56269;51.738;21.652;2022-11-20T14:42:57;25.40;;;9.55;;
69161;SDS011;56269;51.738;21.652;2022-11-20T14:45:24;45.97;;;16.23;;
69161;SDS011;56269;51.738;21.652;2022-11-20T14:47:53;46.75;;;17.38;;
69161;SDS011;56269;51.738;21.652;2022-11-20T14:50:26;42.25;;;15.95;;
69161;SDS011;56269;51.738;21.652;2022-11-20T14:52:55;37.90;;;14.13;;
69161;SDS011;56269;51.738;21.652;2022-11-20T14:55:34;49.08;;;19.63;;
69161;SDS011;56269;51.738;21.652;2022-11-20T14:58:22;47.65;;;18.10;;
69161;SDS011;56269;51.738;21.652;2022-11-20T15:00:58;47.15;;;18.23;;
69161;SDS011;56269;51.738;21.652;2022-11-20T15:06:02;49.07;;;19.03;;
69161;SDS011;56269;51.738;21.652;2022-11-20T15:08:29;33.45;;;10.57;;
69161;SDS011;56269;51.738;21.652;2022-11-20T15:10:56;20.10;;;8.73;;
69161;SDS011;56269;51.738;21.652;2022-11-20T15:15:58;47.30;;;15.68;;
69161;SDS011;56269;51.738;21.652;2022-11-20T15:21:02;51.67;;;17.67;;
69161;SDS011;56269;51.738;21.652;2022-11-20T15:23:32;47.67;;;16.95;;
69161;SDS011;56269;51.738;21.652;2022-11-20T15:25:58;47.22;;;17.92;;
69161;SDS011;56269;51.738;21.652;2022-11-20T15:28:28;30.85;;;11.73;;
69161;SDS011;56269;51.738;21.652;2022-11-20T15:30:57;53.63;;;18.33;;
69161;SDS011;56269;51.738;21.652;2022-11-20T15:33:24;51.17;;;17.20;;
69161;SDS011;56269;51.738;21.652;2022-11-20T15:35:50;38.72;;;14.80;;
69161;SDS011;56269;51.738;21.652;2022-11-20T15:38:17;48.00;;;17.50;;
69161;SDS011;56269;51.738;21.652;2022-11-20T15:40:43;54.03;;;22.00;;
69161;SDS011;56269;51.738;21.652;2022-11-20T15:43:10;33.97;;;14.18;;
69161;SDS011;56269;51.738;21.652;2022-11-20T15:45:37;44.20;;;15.02;;
69161;SDS011;56269;51.738;21.652;2022-11-20T15:48:41;29.45;;;12.27;;
69161;SDS011;56269;51.738;21.652;2022-11-20T15:53:38;40.87;;;14.30;;
69161;SDS011;56269;51.738;21.652;2022-11-20T15:56:07;51.03;;;18.77;;
69161;SDS011;56269;51.738;21.652;2022-11-20T15:58:39;51.60;;;18.20;;
69161;SDS011;56269;51.738;21.652;2022-11-20T16:01:14;54.58;;;21.25;;
69161;SDS011;56269;51.738;21.652;2022-11-20T16:03:42;42.83;;;15.88;;
69161;SDS011;56269;51.738;21.652;2022-11-20T16:06:10;54.03;;;20.17;;
69161;SDS011;56269;51.738;21.652;2022-11-20T16:08:37;36.65;;;12.88;;
69161;SDS011;56269;51.738;21.652;2022-11-20T16:11:03;71.38;;;25.23;;
69161;SDS011;56269;51.738;21.652;2022-11-20T16:13:31;63.15;;;21.60;;
69161;SDS011;56269;51.738;21.652;2022-11-20T16:16:21;41.70;;;18.58;;
69161;SDS011;56269;51.738;21.652;2022-11-20T16:18:50;56.10;;;20.00;;